createdAt,value
2023-02-08T00:01:22.582Z,13.50
2023-02-08T00:04:25.448Z,14.30
2023-02-08T00:07:28.547Z,13.07
2023-02-08T00:10:31.506Z,13.33
2023-02-08T00:13:34.644Z,14.30
2023-02-08T00:16:38.821Z,14.80
2023-02-08T00:19:41.830Z,12.60
2023-02-08T00:22:44.826Z,13.27
2023-02-08T00:25:47.860Z,14.53
2023-02-08T00:28:50.724Z,13.80
2023-02-08T00:31:54.940Z,13.53
2023-02-08T00:34:57.847Z,14.70
2023-02-08T00:38:00.755Z,15.30
2023-02-08T00:41:03.755Z,14.73
2023-02-08T00:44:06.802Z,13.97
2023-02-08T00:47:11.001Z,14.43
2023-02-08T00:50:13.865Z,16.13
2023-02-08T00:53:16.712Z,15.73
2023-02-08T00:56:19.588Z,14.83
2023-02-08T00:59:22.477Z,15.07
2023-02-08T01:02:27.064Z,14.03
2023-02-08T01:05:29.945Z,15.10
2023-02-08T01:08:33.065Z,14.73
2023-02-08T01:11:35.972Z,14.10
2023-02-08T01:14:39.921Z,13.80
2023-02-08T01:17:44.122Z,14.63
2023-02-08T01:20:47.030Z,15.83
2023-02-08T01:23:49.972Z,15.27
2023-02-08T01:26:53.163Z,13.60
2023-02-08T01:29:56.028Z,14.13
2023-02-08T01:33:00.216Z,16.10
2023-02-08T01:36:03.949Z,14.33
2023-02-08T01:39:08.840Z,15.20
2023-02-08T01:42:14.264Z,13.83
2023-02-08T01:45:26.401Z,15.10
2023-02-08T01:48:32.776Z,15.20
2023-02-08T01:51:38.934Z,15.70
2023-02-08T01:54:47.624Z,14.20
2023-02-08T01:57:54.821Z,14.83
2023-02-08T02:00:57.746Z,14.97
2023-02-08T02:04:04.274Z,13.13
2023-02-08T02:07:07.844Z,15.20
2023-02-08T02:10:15.359Z,15.70
2023-02-08T02:13:20.909Z,15.07
2023-02-08T02:16:23.788Z,15.73
2023-02-08T02:19:38.383Z,15.23
2023-02-08T02:23:22.857Z,16.00
2023-02-08T02:26:51.526Z,15.10
2023-02-08T02:30:42.495Z,17.03
2023-02-08T02:34:06.134Z,15.37
2023-02-08T02:37:19.074Z,16.87
2023-02-08T02:40:27.791Z,16.27
2023-02-08T02:43:42.569Z,15.70
2023-02-08T02:46:51.400Z,16.20
2023-02-08T02:50:02.924Z,16.40
2023-02-08T02:53:11.068Z,16.80
2023-02-08T02:56:18.895Z,16.93
2023-02-08T02:59:23.609Z,16.93
2023-02-08T03:02:26.957Z,16.37
2023-02-08T03:05:31.760Z,17.77
2023-02-08T03:09:02.467Z,17.33
2023-02-08T03:12:17.145Z,18.27
2023-02-08T03:15:29.843Z,17.47
2023-02-08T03:18:40.515Z,18.10
2023-02-08T03:21:51.942Z,17.10
2023-02-08T03:24:57.956Z,18.43
2023-02-08T03:28:06.708Z,17.57
2023-02-08T03:31:16.223Z,17.20
2023-02-08T03:34:24.600Z,17.60
2023-02-08T03:37:33.817Z,18.00
2023-02-08T03:40:39.829Z,17.93
2023-02-08T03:43:47.913Z,18.13
2023-02-08T03:46:56.288Z,18.13
2023-02-08T03:50:03.610Z,17.23
2023-02-08T03:53:09.233Z,18.07
2023-02-08T03:56:18.276Z,17.83
2023-02-08T03:59:25.056Z,18.27
2023-02-08T04:02:30.769Z,19.53
2023-02-08T04:05:34.060Z,18.20
2023-02-08T04:08:38.296Z,19.33
2023-02-08T04:11:41.181Z,19.27
2023-02-08T04:14:44.044Z,18.93
2023-02-08T04:17:46.912Z,19.13
2023-02-08T04:20:49.761Z,18.03
2023-02-08T04:23:54.013Z,18.97
2023-02-08T04:26:56.911Z,18.80
2023-02-08T04:29:59.836Z,19.93
2023-02-08T04:33:03.824Z,17.53
2023-02-08T04:36:07.260Z,18.77
2023-02-08T04:39:11.592Z,20.90
2023-02-08T04:42:14.471Z,20.17
2023-02-08T04:45:17.436Z,18.20
2023-02-08T04:48:20.943Z,19.70
2023-02-08T04:51:23.879Z,17.60
2023-02-08T04:54:28.160Z,17.80
2023-02-08T04:57:31.038Z,18.53
2023-02-08T05:00:33.999Z,18.97
2023-02-08T05:03:36.891Z,19.13
2023-02-08T05:06:39.806Z,18.83
2023-02-08T05:09:44.022Z,19.67
2023-02-08T05:12:46.934Z,19.40
2023-02-08T05:15:49.822Z,17.27
2023-02-08T05:18:52.706Z,18.97
2023-02-08T05:21:55.562Z,18.57
2023-02-08T05:25:00.179Z,19.93
2023-02-08T05:28:03.112Z,18.13
2023-02-08T05:31:11.454Z,17.27
2023-02-08T05:34:14.395Z,19.00
2023-02-08T05:37:17.257Z,18.57
2023-02-08T05:40:21.564Z,18.57
2023-02-08T05:43:24.420Z,19.67
2023-02-08T05:46:27.317Z,17.60
2023-02-08T05:49:30.202Z,18.30
2023-02-08T05:52:33.322Z,19.40
2023-02-08T05:55:37.556Z,17.87
2023-02-08T05:58:40.497Z,19.53
2023-02-08T06:01:43.364Z,18.33
2023-02-08T06:04:46.553Z,18.80
2023-02-08T06:07:49.391Z,19.10
2023-02-08T06:10:53.614Z,18.07
2023-02-08T06:13:56.624Z,19.77
2023-02-08T06:16:59.811Z,20.00
2023-02-08T06:20:02.728Z,20.00
2023-02-08T06:23:05.614Z,20.33
2023-02-08T06:26:09.841Z,20.07
2023-02-08T06:29:12.763Z,18.97
2023-02-08T06:32:15.719Z,19.03
2023-02-08T06:35:18.819Z,19.93
2023-02-08T06:38:21.938Z,19.10
2023-02-08T06:41:27.195Z,20.23
2023-02-08T06:44:30.088Z,20.13
2023-02-08T06:47:32.976Z,20.10
2023-02-08T06:50:37.895Z,20.17
2023-02-08T06:53:40.891Z,21.27
2023-02-08T06:56:45.290Z,19.70
2023-02-08T06:59:48.191Z,20.37
2023-02-08T07:02:51.412Z,20.20
2023-02-08T07:06:04.560Z,19.23
2023-02-08T07:09:08.256Z,20.97
2023-02-08T07:12:12.626Z,21.27
2023-02-08T07:15:15.509Z,19.53
2023-02-08T07:18:18.360Z,19.47
2023-02-08T07:21:21.661Z,19.53
2023-02-08T07:24:25.288Z,21.43
2023-02-08T07:27:29.724Z,20.43
2023-02-08T07:30:32.640Z,20.03
2023-02-08T07:33:35.817Z,21.67
2023-02-08T07:36:38.706Z,19.57
2023-02-08T07:39:41.600Z,20.80
2023-02-08T07:42:45.838Z,21.17
2023-02-08T07:45:48.735Z,21.07
2023-02-08T07:48:52.687Z,20.53
2023-02-08T07:51:55.609Z,21.07
2023-02-08T07:54:58.473Z,21.00
2023-02-08T07:58:02.680Z,19.90
2023-02-08T08:01:20.924Z,20.83
2023-02-08T08:04:25.004Z,20.77
2023-02-08T08:07:27.940Z,21.10
2023-02-08T08:10:31.017Z,19.23
2023-02-08T08:13:35.280Z,20.00
2023-02-08T08:16:38.219Z,20.60
2023-02-08T08:19:41.085Z,18.97
2023-02-08T08:22:43.969Z,19.53
2023-02-08T08:25:46.979Z,18.47
2023-02-08T08:28:51.362Z,18.70
2023-02-08T08:31:54.322Z,18.67
2023-02-08T08:34:57.178Z,18.30
2023-02-08T08:38:00.040Z,20.10
2023-02-08T08:41:02.936Z,18.17
2023-02-08T08:44:07.248Z,19.83
2023-02-08T08:47:10.435Z,20.30
2023-02-08T08:50:13.284Z,18.60
2023-02-08T08:53:16.172Z,17.97
2023-02-08T08:56:19.435Z,17.53
2023-02-08T08:59:23.839Z,21.23
2023-02-08T09:02:26.711Z,17.60
2023-02-08T09:05:29.676Z,17.83
2023-02-08T09:08:32.587Z,17.20
2023-02-08T09:11:35.518Z,15.93
2023-02-08T09:14:39.724Z,15.93
2023-02-08T09:17:42.600Z,18.70
2023-02-08T09:20:45.771Z,17.23
2023-02-08T09:23:49.189Z,19.07
2023-02-08T09:26:52.090Z,17.30
2023-02-08T09:29:56.433Z,16.87
2023-02-08T09:32:59.412Z,18.37
2023-02-08T09:36:02.726Z,17.67
2023-02-08T09:39:08.782Z,14.83
2023-02-08T09:42:27.829Z,16.67
2023-02-08T09:45:59.859Z,15.50
2023-02-08T09:49:06.591Z,16.10
2023-02-08T09:52:14.432Z,15.87
2023-02-08T09:55:31.300Z,16.47
2023-02-08T09:58:38.828Z,17.23
2023-02-08T10:01:43.100Z,17.20
2023-02-08T10:04:57.901Z,15.90
2023-02-08T10:08:02.736Z,17.60
2023-02-08T10:11:21.894Z,16.90
2023-02-08T10:14:43.055Z,16.53
2023-02-08T10:18:11.162Z,15.80
2023-02-08T10:21:30.135Z,16.67
2023-02-08T10:24:48.385Z,17.30
2023-02-08T10:28:06.365Z,16.83
2023-02-08T10:31:19.626Z,16.53
2023-02-08T10:34:36.837Z,16.27
2023-02-08T10:37:43.046Z,16.47
2023-02-08T10:40:47.852Z,16.03
2023-02-08T10:43:54.704Z,16.27
2023-02-08T10:47:07.341Z,14.47
2023-02-08T10:50:22.219Z,14.57
2023-02-08T10:53:25.096Z,16.63
2023-02-08T10:56:38.129Z,15.33
2023-02-08T10:59:50.247Z,17.37
2023-02-08T11:02:53.999Z,16.10
2023-02-08T11:05:58.440Z,16.47
2023-02-08T11:09:01.327Z,14.57
2023-02-08T11:12:04.381Z,16.40
2023-02-08T11:15:21.704Z,16.83
2023-02-08T11:18:27.703Z,16.83
2023-02-08T11:21:34.836Z,16.87
2023-02-08T11:24:41.498Z,16.43
2023-02-08T11:27:49.726Z,17.03
2023-02-08T11:31:01.304Z,17.30
2023-02-08T11:34:05.573Z,17.20
2023-02-08T11:37:18.650Z,17.63
2023-02-08T11:40:25.159Z,17.43
2023-02-08T11:43:30.949Z,18.80
2023-02-08T11:46:36.800Z,17.57
2023-02-08T11:49:42.324Z,16.53
2023-02-08T11:52:55.709Z,16.80
2023-02-08T11:56:05.101Z,16.33
2023-02-08T11:59:20.492Z,16.63
2023-02-08T12:02:37.727Z,16.43
2023-02-08T12:05:48.378Z,16.60
2023-02-08T12:09:01.984Z,18.07
2023-02-08T12:12:15.642Z,17.50
2023-02-08T12:15:27.287Z,16.53
2023-02-08T12:19:02.075Z,17.10
2023-02-08T12:22:10.512Z,15.70
2023-02-08T12:25:27.176Z,15.57
2023-02-08T12:28:43.412Z,17.73
2023-02-08T12:31:59.560Z,16.47
2023-02-08T12:35:33.128Z,18.07
2023-02-08T12:39:18.338Z,17.13
2023-02-08T12:42:34.879Z,16.23
2023-02-08T12:45:54.851Z,17.23
2023-02-08T12:49:09.182Z,16.17
2023-02-08T12:52:24.453Z,15.67
2023-02-08T12:55:31.040Z,16.80
2023-02-08T12:58:43.364Z,15.73
2023-02-08T13:01:51.259Z,16.10
2023-02-08T13:04:59.556Z,16.73
2023-02-08T13:08:14.090Z,16.23
2023-02-08T13:11:21.836Z,14.97
2023-02-08T13:14:32.980Z,17.03
2023-02-08T13:17:45.998Z,14.87
2023-02-08T13:20:53.067Z,15.60
2023-02-08T13:23:56.292Z,16.13
2023-02-08T13:26:59.342Z,14.20
2023-02-08T13:30:04.799Z,15.73
2023-02-08T13:33:16.359Z,15.93
2023-02-08T13:36:25.943Z,14.77
2023-02-08T13:39:36.600Z,14.63
2023-02-08T13:42:43.618Z,16.10
2023-02-08T13:45:56.032Z,15.10
2023-02-08T13:49:00.904Z,15.23
2023-02-08T13:52:03.831Z,13.87
2023-02-08T13:55:45.997Z,13.97
2023-02-08T13:59:04.010Z,13.67
2023-02-08T14:02:30.649Z,14.03
2023-02-08T14:05:49.053Z,15.07
2023-02-08T14:08:59.403Z,13.97
2023-02-08T14:12:04.818Z,14.27
2023-02-08T14:15:28.709Z,14.93
2023-02-08T14:18:32.979Z,14.77
2023-02-08T14:21:39.457Z,13.63
2023-02-08T14:24:47.435Z,14.73
2023-02-08T14:27:53.480Z,12.83
2023-02-08T14:30:59.570Z,14.07
2023-02-08T14:34:04.390Z,12.93
2023-02-08T14:37:28.529Z,15.40
2023-02-08T14:40:50.453Z,12.80
2023-02-08T14:43:53.374Z,13.47
2023-02-08T14:46:56.409Z,12.47
2023-02-08T14:50:06.745Z,13.23
2023-02-08T14:53:35.336Z,11.97
2023-02-08T14:56:50.205Z,11.77
2023-02-08T14:59:54.785Z,11.77
2023-02-08T15:02:58.548Z,12.20
2023-02-08T15:06:28.062Z,12.83
2023-02-08T15:09:32.761Z,12.83
2023-02-08T15:12:39.566Z,12.80
2023-02-08T15:15:45.830Z,11.13
2023-02-08T15:18:51.621Z,10.07
2023-02-08T15:21:56.495Z,13.23
2023-02-08T15:25:04.309Z,12.40
2023-02-08T15:28:19.180Z,12.00
2023-02-08T15:31:24.725Z,12.20
2023-02-08T15:34:28.193Z,12.20
2023-02-08T15:37:34.837Z,12.17
2023-02-08T15:40:37.956Z,11.13
2023-02-08T15:43:42.744Z,11.90
2023-02-08T15:46:47.138Z,10.73
2023-02-08T15:49:53.654Z,11.33
2023-02-08T15:53:01.256Z,12.37
2023-02-08T15:56:05.722Z,11.73
2023-02-08T15:59:15.456Z,11.77
2023-02-08T16:02:25.261Z,11.30
2023-02-08T16:05:30.480Z,11.97
2023-02-08T16:08:37.034Z,11.73
2023-02-08T16:11:39.928Z,12.50
2023-02-08T16:14:52.506Z,13.07
2023-02-08T16:17:55.903Z,11.63
2023-02-08T16:20:59.611Z,13.00
2023-02-08T16:24:07.506Z,12.57
2023-02-08T16:27:21.355Z,11.23
2023-02-08T16:30:24.655Z,12.77
2023-02-08T16:33:28.132Z,12.80
2023-02-08T16:36:36.908Z,13.33
2023-02-08T16:39:52.659Z,14.33
2023-02-08T16:43:23.462Z,13.53
2023-02-08T16:46:28.021Z,14.40
2023-02-08T16:49:30.924Z,14.17
2023-02-08T16:52:34.769Z,14.03
2023-02-08T16:55:39.259Z,13.53
2023-02-08T16:58:42.275Z,13.00
2023-02-08T17:01:48.163Z,13.03
2023-02-08T17:04:54.573Z,14.07
2023-02-08T17:07:58.061Z,13.20
2023-02-08T17:11:02.598Z,13.67
2023-02-08T17:14:05.720Z,12.50
2023-02-08T17:17:08.730Z,12.83
2023-02-08T17:20:19.210Z,12.17
2023-02-08T17:23:22.081Z,12.73
2023-02-08T17:26:28.658Z,13.60
2023-02-08T17:29:31.626Z,11.23
2023-02-08T17:32:34.457Z,13.13
2023-02-08T17:35:38.893Z,12.70
2023-02-08T17:38:43.891Z,13.67
2023-02-08T17:41:48.102Z,13.30
2023-02-08T17:44:50.959Z,13.63
2023-02-08T17:47:54.472Z,13.27
2023-02-08T17:50:57.312Z,13.23
2023-02-08T17:54:00.245Z,13.13
2023-02-08T17:57:06.815Z,13.83
2023-02-08T18:00:12.398Z,12.83
2023-02-08T18:03:17.228Z,12.83
2023-02-08T18:06:20.806Z,13.17
2023-02-08T18:09:23.767Z,13.07
2023-02-08T18:12:28.025Z,13.70
2023-02-08T18:15:30.880Z,14.40
2023-02-08T18:18:33.726Z,14.23
2023-02-08T18:21:36.579Z,13.20
2023-02-08T18:24:39.448Z,13.93
2023-02-08T18:27:43.695Z,12.83
2023-02-08T18:30:46.638Z,14.27
2023-02-08T18:33:51.211Z,14.20
2023-02-08T18:36:54.165Z,13.67
2023-02-08T18:39:57.469Z,14.47
2023-02-08T18:43:01.717Z,14.73
2023-02-08T18:46:06.548Z,14.10
2023-02-08T18:49:10.217Z,13.07
2023-02-08T18:52:15.850Z,13.13
2023-02-08T18:55:18.865Z,14.00
2023-02-08T18:58:23.653Z,13.17
2023-02-08T19:01:26.553Z,12.77
2023-02-08T19:04:29.493Z,13.80
2023-02-08T19:07:34.937Z,12.87
2023-02-08T19:10:38.086Z,12.50
2023-02-08T19:13:42.336Z,12.07
2023-02-08T19:16:45.447Z,12.23
2023-02-08T19:19:48.955Z,11.03
2023-02-08T19:22:51.811Z,12.23
2023-02-08T19:25:54.682Z,11.97
2023-02-08T19:29:00.453Z,13.27
2023-02-08T19:32:03.413Z,13.83
2023-02-08T19:35:06.462Z,15.20
2023-02-08T19:38:09.285Z,13.60
2023-02-08T19:41:17.458Z,17.40
2023-02-08T19:44:22.728Z,16.20
2023-02-08T19:47:43.397Z,14.93
2023-02-08T19:50:55.327Z,15.43
2023-02-08T19:53:58.677Z,15.00
2023-02-08T19:57:01.567Z,13.93
2023-02-08T20:00:11.299Z,14.07
2023-02-08T20:03:22.397Z,15.03
2023-02-08T20:06:29.985Z,14.00
2023-02-08T20:09:32.964Z,13.27
2023-02-08T20:12:35.814Z,13.93
2023-02-08T20:15:45.242Z,14.77
2023-02-08T20:18:48.576Z,13.97
2023-02-08T20:21:51.836Z,12.93
2023-02-08T20:24:54.818Z,13.40
2023-02-08T20:27:58.106Z,11.47
2023-02-08T20:31:02.506Z,12.03
2023-02-08T20:34:08.635Z,13.67
2023-02-08T20:37:11.579Z,12.70
2023-02-08T20:40:15.612Z,13.40
2023-02-08T20:43:18.488Z,12.77
2023-02-08T20:46:25.906Z,12.33
2023-02-08T20:49:30.737Z,11.77
2023-02-08T20:52:34.355Z,11.33
2023-02-08T20:55:41.750Z,10.87
2023-02-08T20:58:45.001Z,11.83
2023-02-08T21:01:49.667Z,13.07
2023-02-08T21:04:52.550Z,13.33
2023-02-08T21:07:55.400Z,14.20
2023-02-08T21:11:02.131Z,14.13
2023-02-08T21:14:06.647Z,13.97
2023-02-08T21:17:11.803Z,14.20
2023-02-08T21:20:15.582Z,13.40
2023-02-08T21:23:18.423Z,13.80
2023-02-08T21:26:22.276Z,13.97
2023-02-08T21:29:26.025Z,16.00
2023-02-08T21:32:30.225Z,16.20
2023-02-08T21:35:35.583Z,16.30
2023-02-08T21:38:38.768Z,16.30
2023-02-08T21:41:41.678Z,15.30
2023-02-08T21:44:44.497Z,13.87
2023-02-08T21:47:48.686Z,14.77
2023-02-08T21:51:08.953Z,13.23
2023-02-08T21:54:30.838Z,12.57
2023-02-08T21:57:39.744Z,11.30
2023-02-08T22:00:42.884Z,12.40
2023-02-08T22:03:47.301Z,11.87
2023-02-08T22:06:50.272Z,12.67
2023-02-08T22:09:53.358Z,12.00
2023-02-08T22:12:57.279Z,11.67
2023-02-08T22:16:00.594Z,13.73
2023-02-08T22:19:04.898Z,13.40
2023-02-08T22:22:08.592Z,13.17
2023-02-08T22:25:11.462Z,13.37
2023-02-08T22:28:14.381Z,13.07
2023-02-08T22:31:17.711Z,12.37
2023-02-08T22:34:22.007Z,13.10
2023-02-08T22:37:24.884Z,13.20
2023-02-08T22:40:27.797Z,12.57
2023-02-08T22:43:30.681Z,12.67
2023-02-08T22:46:33.529Z,13.00
2023-02-08T22:49:38.366Z,13.57
2023-02-08T22:52:41.228Z,13.40
2023-02-08T22:55:49.821Z,12.90
2023-02-08T22:58:53.147Z,12.80
2023-02-08T23:01:56.088Z,12.13
2023-02-08T23:05:00.339Z,11.37
2023-02-08T23:08:03.193Z,11.20
2023-02-08T23:11:07.556Z,12.17
2023-02-08T23:14:10.432Z,11.47
2023-02-08T23:17:13.303Z,11.97
2023-02-08T23:20:17.945Z,11.70
2023-02-08T23:23:21.228Z,10.97
2023-02-08T23:26:24.826Z,11.70
2023-02-08T23:29:28.161Z,10.90
2023-02-08T23:32:31.026Z,11.20
2023-02-08T23:35:35.582Z,12.30
2023-02-08T23:38:39.250Z,11.57
2023-02-08T23:41:42.119Z,11.37
2023-02-08T23:44:44.963Z,11.77
2023-02-08T23:47:47.817Z,12.10
2023-02-08T23:50:59.459Z,11.53
2023-02-08T23:54:02.312Z,10.10
2023-02-08T23:57:05.457Z,12.10
